Time;durP1;ratioP1;P1;durP2;ratioP2;P2;SDS_P1;SDS_P2;PMS_P1;PMS_P2;Temp;Humidity;BMP_temperature;BMP_pressure;BME280_temperature;BME280_humidity;BME280_pressure;Samples;Min_cycle;Max_cycle;Signal;HPM_P1;HPM_P2
2023/05/01 00:02:07;;;;;;;14.63;4.50;;;;;;;10.70;87.67;101565.69;4838714;29;20122;-79
2023/05/01 00:04:33;;;;;;;13.65;4.57;;;;;;;10.73;86.25;101565.53;4840377;29;20037;-79
2023/05/01 00:06:58;;;;;;;17.00;4.97;;;;;;;10.71;87.65;101563.88;4840163;29;20462;-79
2023/05/01 00:09:26;;;;;;;15.13;4.57;;;;;;;10.72;87.30;101560.22;4838987;29;20050;-79
2023/05/01 00:11:52;;;;;;;13.95;4.80;;;;;;;10.73;88.12;101545.81;4838819;29;20482;-79
2023/05/01 00:14:17;;;;;;;13.18;4.85;;;;;;;10.72;87.85;101544.97;4840041;29;20124;-79
2023/05/01 00:16:42;;;;;;;12.45;5.00;;;;;;;10.70;86.76;101546.88;4838699;29;20447;-79
2023/05/01 00:19:08;;;;;;;15.05;4.43;;;;;;;10.70;87.49;101541.50;4838846;29;20029;-79
2023/05/01 00:21:33;;;;;;;14.25;4.75;;;;;;;10.71;87.32;101542.38;4840187;29;20030;-79
2023/05/01 00:23:58;;;;;;;16.08;5.13;;;;;;;10.70;86.60;101540.63;4840187;29;20081;-79
2023/05/01 00:26:28;;;;;;;15.07;4.88;;;;;;;10.70;85.10;101530.72;4839927;29;20089;-79
2023/05/01 00:28:54;;;;;;;13.55;4.70;;;;;;;10.68;87.37;101529.97;4839967;29;20037;-79
2023/05/01 00:31:19;;;;;;;17.10;5.57;;;;;;;10.69;86.51;101536.22;4840138;29;20029;-79
2023/05/01 00:33:45;;;;;;;17.10;4.50;;;;;;;10.66;86.09;101529.22;4838772;29;20132;-79
2023/05/01 00:36:10;;;;;;;13.40;4.82;;;;;;;10.66;88.83;101529.22;4840139;29;20030;-79
2023/05/01 00:38:35;;;;;;;15.93;5.00;;;;;;;10.65;90.18;101528.34;4840004;29;20041;-79
2023/05/01 00:41:00;;;;;;;14.68;5.45;;;;;;;10.64;89.90;101531.13;4838712;29;20026;-79
2023/05/01 00:43:26;;;;;;;17.48;4.97;;;;;;;10.61;89.97;101517.88;4839740;29;20090;-79
2023/05/01 00:45:51;;;;;;;19.52;5.38;;;;;;;10.59;90.81;101523.34;4838810;29;20026;-79
2023/05/01 00:48:16;;;;;;;14.60;4.95;;;;;;;10.57;91.21;101513.66;4839759;29;20030;-79
2023/05/01 00:50:44;;;;;;;15.63;4.60;;;;;;;10.53;90.00;101513.00;4838409;29;20026;-79
2023/05/01 00:53:10;;;;;;;22.50;4.88;;;;;;;10.51;89.24;101508.66;4838622;29;20030;-79
2023/05/01 00:55:36;;;;;;;16.60;4.88;;;;;;;10.46;90.18;101503.59;4838672;29;20371;-78
2023/05/01 00:58:02;;;;;;;13.55;5.20;;;;;;;10.45;90.12;101510.78;4840828;29;20034;-79
2023/05/01 01:00:28;;;;;;;19.00;4.80;;;;;;;10.46;90.13;101493.69;4843211;29;20029;-79
2023/05/01 01:02:53;;;;;;;14.13;4.55;;;;;;;10.46;91.25;101491.00;4842864;29;20049;-78
2023/05/01 01:05:23;;;;;;;17.33;5.10;;;;;;;10.44;92.31;101498.31;4841930;29;20044;-79
2023/05/01 01:07:58;;;;;;;13.50;4.60;;;;;;;10.43;89.74;101484.97;4841891;29;20044;-79
2023/05/01 01:10:47;;;;;;;12.68;4.53;;;;;;;10.44;88.80;101487.56;4836228;29;20026;-79
2023/05/01 01:13:19;;;;;;;;;;;;;;;10.51;88.11;101481.78;4843351;29;20055;-79
2023/05/01 01:16:07;;;;;;;16.27;5.43;;;;;;;10.45;90.94;101483.03;4843215;29;19930;-79
2023/05/01 01:18:45;;;;;;;15.30;5.30;;;;;;;10.46;91.86;101474.03;4835114;29;20034;-79
2023/05/01 01:21:16;;;;;;;13.65;4.93;;;;;;;10.43;90.13;101468.84;4841522;29;20057;-79
2023/05/01 01:23:52;;;;;;;15.93;5.85;;;;;;;10.40;88.39;101469.03;4842935;29;20061;-78
2023/05/01 01:26:49;;;;;;;13.30;4.43;;;;;;;10.43;90.83;101466.16;4842767;29;20065;-79
2023/05/01 01:29:49;;;;;;;17.52;5.55;;;;;;;10.41;91.16;101462.69;4842626;29;20044;-79
2023/05/01 01:32:31;;;;;;;20.40;5.72;;;;;;;10.39;92.16;101456.56;4842560;29;20038;-79
2023/05/01 01:35:06;;;;;;;15.43;5.20;;;;;;;10.36;92.51;101454.06;4842746;29;20049;-79
2023/05/01 01:38:08;;;;;;;17.92;5.85;;;;;;;10.38;90.63;101450.34;4842708;29;20064;-79
2023/05/01 01:40:49;;;;;;;17.05;5.07;;;;;;;10.37;92.89;101448.59;4832413;29;20441;-79
2023/05/01 01:43:19;;;;;;;16.77;5.40;;;;;;;10.34;91.06;101446.09;4842479;29;20034;-79
2023/05/01 01:45:52;;;;;;;12.50;4.53;;;;;;;10.33;92.34;101436.28;4842569;29;20045;-78
2023/05/01 01:48:30;;;;;;;14.93;5.10;;;;;;;10.33;92.68;101436.28;4841023;29;20439;-79
2023/05/01 01:50:58;;;;;;;15.90;4.85;;;;;;;10.31;92.37;101432.84;4835044;29;20133;-79
2023/05/01 01:53:27;;;;;;;15.30;5.45;;;;;;;10.29;93.05;101437.41;4841016;29;20030;-79
2023/05/01 01:55:53;;;;;;;16.05;5.90;;;;;;;10.27;92.23;101431.28;4842367;29;20482;-79
2023/05/01 01:58:25;;;;;;;15.30;5.03;;;;;;;10.24;92.57;101420.75;4840380;29;20073;-79
2023/05/01 02:00:52;;;;;;;14.88;5.40;;;;;;;10.24;93.94;101426.97;4842157;29;20067;-79
2023/05/01 02:03:20;;;;;;;14.30;5.20;;;;;;;10.22;93.85;101425.34;4842092;29;20387;-79
2023/05/01 02:05:47;;;;;;;14.27;5.13;;;;;;;10.19;95.01;101418.34;4840840;29;20521;-79
2023/05/01 02:08:15;;;;;;;16.48;5.88;;;;;;;10.18;95.81;101423.81;4833482;29;20036;-79
2023/05/01 02:10:42;;;;;;;15.00;5.28;;;;;;;10.16;96.09;101415.81;4842094;29;20050;-79
2023/05/01 02:13:08;;;;;;;14.50;4.95;;;;;;;10.17;94.93;101411.34;4840522;29;20026;-79
2023/05/01 02:15:33;;;;;;;17.15;6.03;;;;;;;10.11;92.76;101410.75;4840751;29;20379;-79
2023/05/01 02:18:03;;;;;;;16.10;5.43;;;;;;;10.11;93.57;101409.91;4841857;29;20206;-79
2023/05/01 02:20:29;;;;;;;18.38;5.78;;;;;;;10.10;93.41;101409.03;4835020;29;20109;-79
2023/05/01 02:22:57;;;;;;;15.80;5.45;;;;;;;10.10;93.19;101403.66;4840481;29;20500;-79
2023/05/01 02:25:22;;;;;;;16.98;6.20;;;;;;;10.10;95.19;101402.78;4840365;29;20043;-79
2023/05/01 02:28:02;;;;;;;17.98;5.78;;;;;;;10.11;94.88;101393.78;4840436;29;20050;-79
2023/05/01 02:30:28;;;;;;;21.63;5.57;;;;;;;10.09;95.40;101393.88;4841554;29;20117;-79
2023/05/01 02:32:56;;;;;;;16.92;5.93;;;;;;;10.10;92.82;101397.41;4840630;29;20140;-79
2023/05/01 02:35:22;;;;;;;17.67;5.65;;;;;;;10.09;91.85;101398.41;4840213;29;20032;-79
2023/05/01 02:37:47;;;;;;;15.10;5.28;;;;;;;10.09;92.83;101385.81;4840301;29;20034;-79
2023/05/01 02:40:13;;;;;;;15.88;6.10;;;;;;;10.09;92.27;101385.81;4840169;29;20018;-79
2023/05/01 02:42:44;;;;;;;14.07;5.20;;;;;;;10.07;90.75;101382.38;4840077;29;20483;-79
2023/05/01 02:45:19;;;;;;;15.20;5.30;;;;;;;10.09;93.94;101387.66;4841529;29;20026;-79
2023/05/01 02:47:49;;;;;;;17.98;5.70;;;;;;;10.06;92.20;101375.28;4840113;29;20150;-79
2023/05/01 02:50:16;;;;;;;20.50;6.40;;;;;;;10.07;93.34;101371.63;4841440;29;20402;-79
2023/05/01 02:52:42;;;;;;;16.95;5.45;;;;;;;10.03;92.35;101380.84;4841199;29;20040;-79
2023/05/01 02:55:08;;;;;;;18.98;6.15;;;;;;;10.04;92.95;101370.94;4840041;29;20038;-79
2023/05/01 02:57:34;;;;;;;16.80;5.55;;;;;;;10.01;93.50;101363.94;4839810;29;20045;-79
2023/05/01 02:59:59;;;;;;;23.30;6.75;;;;;;;10.02;94.53;101357.63;4840062;29;20375;-79
2023/05/01 03:02:24;;;;;;;14.80;5.25;;;;;;;10.02;92.39;101363.00;4840723;29;20062;-79
2023/05/01 03:04:50;;;;;;;16.60;6.13;;;;;;;10.01;91.64;101357.72;4839830;29;20046;-79
2023/05/01 03:07:15;;;;;;;14.90;5.53;;;;;;;10.00;93.04;101354.19;4841121;29;20026;-79
2023/05/01 03:09:40;;;;;;;15.75;5.55;;;;;;;9.98;93.11;101356.09;4841062;29;20112;-79
2023/05/01 03:12:06;;;;;;;16.88;6.43;;;;;;;10.00;91.92;101350.63;4840860;29;20040;-79
2023/05/01 03:14:32;;;;;;;16.33;5.30;;;;;;;9.99;91.23;101352.44;4839673;29;20041;-79
2023/05/01 03:16:57;;;;;;;14.98;5.35;;;;;;;9.98;90.62;101348.03;4839488;29;20066;-79
2023/05/01 03:19:22;;;;;;;17.63;5.90;;;;;;;9.97;90.70;101338.25;4839481;29;20029;-79
2023/05/01 03:21:48;;;;;;;18.30;6.13;;;;;;;9.99;93.82;101343.53;4839397;29;20045;-79
2023/05/01 03:24:13;;;;;;;17.27;5.22;;;;;;;9.99;95.37;101340.84;4839444;29;20077;-79
2023/05/01 03:26:38;;;;;;;20.23;6.78;;;;;;;9.97;95.52;101340.91;4839523;29;20089;-79
2023/05/01 03:29:03;;;;;;;15.57;5.75;;;;;;;9.96;95.33;101336.53;4839423;29;20098;-79
2023/05/01 03:31:29;;;;;;;16.08;6.22;;;;;;;9.98;95.80;101337.28;4840528;29;20503;-79
2023/05/01 03:33:54;;;;;;;20.25;6.40;;;;;;;9.95;96.58;101329.44;4840807;29;20034;-79
2023/05/01 03:36:21;;;;;;;17.15;6.05;;;;;;;9.91;96.17;101330.56;4839237;29;20439;-79
2023/05/01 03:38:46;;;;;;;16.85;5.60;;;;;;;9.89;95.65;101324.44;4840731;29;20108;-79
2023/05/01 03:41:12;;;;;;;18.67;5.70;;;;;;;9.91;94.29;101327.88;4839467;29;20117;-79
2023/05/01 03:43:37;;;;;;;19.45;6.45;;;;;;;9.89;94.11;101321.75;4839116;29;20037;-79
2023/05/01 03:46:02;;;;;;;16.90;6.20;;;;;;;9.90;94.30;101316.28;4839275;29;20619;-79
2023/05/01 03:48:28;;;;;;;18.98;6.10;;;;;;;9.89;93.35;101319.94;4839068;29;20036;-79
2023/05/01 03:50:53;;;;;;;20.20;6.78;;;;;;;9.87;92.91;101315.63;4831295;29;20352;-80
2023/05/01 03:53:18;;;;;;;16.95;6.07;;;;;;;9.89;94.92;101319.09;4839166;29;20037;-78
2023/05/01 03:55:44;;;;;;;20.13;6.10;;;;;;;9.87;94.19;101316.50;4840371;29;20041;-78
2023/05/01 03:58:09;;;;;;;20.20;6.28;;;;;;;9.85;93.70;101314.84;4838962;29;20502;-79
2023/05/01 04:00:36;;;;;;;17.60;6.05;;;;;;;9.86;96.42;101303.16;4840415;29;20037;-79
2023/05/01 04:03:02;;;;;;;19.77;6.50;;;;;;;9.86;95.85;101309.38;4838582;29;20068;-79
2023/05/01 04:05:28;;;;;;;19.55;6.93;;;;;;;9.84;97.15;101307.75;4840319;29;20034;-79
2023/05/01 04:07:53;;;;;;;18.80;6.72;;;;;;;9.80;96.40;101316.00;4840278;29;20061;-79
2023/05/01 04:10:19;;;;;;;17.75;6.50;;;;;;;9.77;96.37;101313.50;4840431;29;20061;-79
2023/05/01 04:12:44;;;;;;;17.50;5.55;;;;;;;9.74;95.67;101308.34;4840449;29;20041;-79
2023/05/01 04:15:10;;;;;;;19.88;6.50;;;;;;;9.72;95.41;101312.97;4840265;29;20525;-79
2023/05/01 04:17:36;;;;;;;17.95;6.18;;;;;;;9.72;95.72;101309.38;4840193;29;20034;-79
2023/05/01 04:20:03;;;;;;;19.00;5.93;;;;;;;9.71;95.38;101311.22;4840172;29;20113;-79
2023/05/01 04:22:29;;;;;;;19.75;6.95;;;;;;;9.72;95.22;101317.44;4840221;29;20113;-79
2023/05/01 04:24:54;;;;;;;19.20;6.47;;;;;;;9.77;94.24;101326.94;4838929;29;20124;-79
2023/05/01 04:27:20;;;;;;;19.30;6.57;;;;;;;9.75;94.99;101328.88;4838343;29;20033;-79
2023/05/01 04:29:45;;;;;;;21.65;7.15;;;;;;;9.77;95.56;101315.34;4839597;29;20084;-78
2023/05/01 04:32:11;;;;;;;21.48;6.63;;;;;;;9.77;95.44;101316.19;4839878;29;20064;-79
2023/05/01 04:34:36;;;;;;;20.52;7.30;;;;;;;9.77;95.08;101313.50;4843676;29;20032;-79
2023/05/01 04:37:02;;;;;;;20.02;7.63;;;;;;;9.75;94.79;101312.75;4843889;29;20443;-79
2023/05/01 04:39:28;;;;;;;19.52;6.75;;;;;;;9.75;96.40;101307.41;4843680;29;20128;-79
2023/05/01 04:41:53;;;;;;;25.00;6.97;;;;;;;9.77;96.48;101304.63;4843605;29;20042;-79
2023/05/01 04:44:18;;;;;;;18.10;6.90;;;;;;;9.75;94.93;101304.72;4842426;29;20018;-79
2023/05/01 04:46:43;;;;;;;19.30;7.32;;;;;;;9.74;95.01;101304.81;4842052;29;20041;-79
2023/05/01 04:49:09;;;;;;;26.88;7.50;;;;;;;9.72;95.53;101304.91;4842121;29;20033;-78
2023/05/01 04:51:34;;;;;;;17.15;6.38;;;;;;;9.73;95.90;101309.28;4843363;29;20570;-80
2023/05/01 04:54:00;;;;;;;21.05;7.40;;;;;;;9.75;96.50;101303.81;4842261;29;20038;-79
2023/05/01 04:56:25;;;;;;;19.48;7.53;;;;;;;9.71;95.38;101303.16;4843419;29;20029;-79
2023/05/01 04:58:51;;;;;;;20.35;7.32;;;;;;;9.71;95.00;101300.47;4843450;29;20037;-79
2023/05/01 05:01:16;;;;;;;19.80;7.28;;;;;;;9.70;95.44;101300.59;4841457;29;20543;-79
2023/05/01 05:03:42;;;;;;;19.02;6.30;;;;;;;9.69;96.10;101301.53;4842025;29;20374;-79
2023/05/01 05:06:07;;;;;;;20.67;7.82;;;;;;;9.70;95.98;101298.75;4843106;29;20189;-79
2023/05/01 05:08:33;;;;;;;20.27;6.85;;;;;;;9.70;95.81;101297.91;4841976;29;20030;-79
2023/05/01 05:10:59;;;;;;;21.30;6.63;;;;;;;9.71;96.07;101299.63;4841599;29;20057;-79
2023/05/01 05:13:24;;;;;;;18.48;6.63;;;;;;;9.71;97.33;101300.47;4841751;29;20037;-79
2023/05/01 05:15:50;;;;;;;21.98;7.57;;;;;;;9.73;97.74;101293.19;4843164;29;20030;-79
2023/05/01 05:18:15;;;;;;;21.95;8.18;;;;;;;9.76;96.15;101298.34;4841517;29;20037;-76
2023/05/01 05:20:40;;;;;;;20.67;7.32;;;;;;;9.75;97.05;101296.66;4841655;29;20490;-79
2023/05/01 05:23:06;;;;;;;23.42;8.27;;;;;;;9.78;96.53;101298.25;4842865;29;20045;-79
2023/05/01 05:25:31;;;;;;;21.15;7.88;;;;;;;9.80;97.26;101299.91;4841645;29;20041;-79
2023/05/01 05:27:58;;;;;;;19.00;8.00;;;;;;;9.82;96.77;101296.25;4841404;29;20129;-79
2023/05/01 05:30:23;;;;;;;20.08;7.05;;;;;;;9.86;96.00;101303.16;4842672;29;20113;-79
2023/05/01 05:32:49;;;;;;;19.60;7.85;;;;;;;9.88;95.47;101294.06;4842592;29;20125;-79
2023/05/01 05:35:14;;;;;;;19.63;7.45;;;;;;;9.92;95.18;101302.78;4842676;29;20022;-79
2023/05/01 05:37:40;;;;;;;22.08;7.72;;;;;;;9.95;94.61;101299.91;4842819;29;20150;-79
2023/05/01 05:40:06;;;;;;;20.10;7.80;;;;;;;10.00;96.38;101302.28;4841290;29;20113;-79
2023/05/01 05:42:31;;;;;;;19.50;7.22;;;;;;;10.05;94.77;101301.03;4842309;29;20121;-79
2023/05/01 05:44:57;;;;;;;18.70;7.88;;;;;;;10.10;94.96;101301.63;4841593;29;20109;-79
2023/05/01 05:47:22;;;;;;;20.38;7.93;;;;;;;10.18;93.65;101308.31;4841212;29;20082;-80
2023/05/01 05:49:47;;;;;;;22.13;8.88;;;;;;;10.26;93.48;101298.81;4840921;29;20034;-79
2023/05/01 05:52:13;;;;;;;19.30;8.30;;;;;;;10.34;91.11;101298.34;4842601;29;20037;-79
2023/05/01 05:54:38;;;;;;;24.27;9.18;;;;;;;10.41;90.30;101298.78;4841117;29;20444;-79
2023/05/01 05:57:04;;;;;;;21.13;8.90;;;;;;;10.46;88.98;101299.34;4841002;29;20048;-79
2023/05/01 05:59:29;;;;;;;23.10;9.00;;;;;;;10.52;89.21;101307.00;4841223;29;20029;-80
2023/05/01 06:01:54;;;;;;;19.50;8.45;;;;;;;10.57;89.06;101301.31;4841809;29;20110;-79
2023/05/01 06:04:20;;;;;;;20.63;9.00;;;;;;;10.60;86.97;101306.47;4842047;29;20038;-79
2023/05/01 06:06:45;;;;;;;21.08;8.10;;;;;;;10.61;87.65;101306.38;4840982;29;20045;-78
2023/05/01 06:09:11;;;;;;;19.95;8.45;;;;;;;10.64;87.78;101289.19;4842110;29;20061;-79
2023/05/01 06:11:36;;;;;;;21.20;8.77;;;;;;;10.68;88.92;101293.41;4840640;29;20022;-79
2023/05/01 06:14:02;;;;;;;20.85;9.07;;;;;;;10.71;87.80;101295.88;4842323;29;20056;-79
2023/05/01 06:16:28;;;;;;;24.20;8.65;;;;;;;10.77;88.81;101298.16;4842091;29;20398;-79
2023/05/01 06:18:53;;;;;;;20.13;7.85;;;;;;;10.80;86.48;101294.41;4840843;29;20069;-80
2023/05/01 06:21:18;;;;;;;22.67;9.15;;;;;;;10.82;85.96;101297.84;4840647;29;20038;-79
2023/05/01 06:23:44;;;;;;;27.10;9.05;;;;;;;10.84;86.42;101294.09;4841995;29;20037;-79
2023/05/01 06:26:09;;;;;;;24.88;9.18;;;;;;;10.89;85.50;101292.94;4840541;29;20037;-79
2023/05/01 06:28:34;;;;;;;22.60;8.82;;;;;;;10.91;86.43;101285.59;4840381;29;20033;-79
2023/05/01 06:30:59;;;;;;;20.23;8.27;;;;;;;10.96;86.46;101289.72;4840509;29;20045;-79
2023/05/01 06:33:25;;;;;;;21.40;9.35;;;;;;;11.01;87.83;101290.28;4841462;29;20126;-79
2023/05/01 06:35:50;;;;;;;21.20;9.20;;;;;;;11.06;86.68;101283.72;4841860;29;20030;-79
2023/05/01 06:38:15;;;;;;;23.10;8.95;;;;;;;11.09;85.64;101295.13;4841770;29;20423;-79
2023/05/01 06:40:41;;;;;;;24.23;9.30;;;;;;;11.15;86.43;101283.09;4832750;29;20025;-80
2023/05/01 06:43:06;;;;;;;23.45;9.82;;;;;;;11.19;83.56;101290.84;4840086;29;20411;-79
2023/05/01 06:45:32;;;;;;;23.02;8.90;;;;;;;11.25;83.36;101291.41;4841509;29;20093;-79
2023/05/01 06:47:57;;;;;;;22.80;9.35;;;;;;;11.32;85.21;101284.63;4839944;29;20116;-79
2023/05/01 06:50:23;;;;;;;20.48;9.43;;;;;;;11.37;85.72;101279.75;4841484;29;20086;-79
2023/05/01 06:52:48;;;;;;;20.80;8.93;;;;;;;11.43;84.08;101287.41;4840013;29;20030;-80
2023/05/01 06:55:13;;;;;;;22.33;9.43;;;;;;;11.47;82.48;101282.69;4839572;29;20451;-79
2023/05/01 06:57:39;;;;;;;22.45;8.95;;;;;;;11.52;83.46;101285.91;4841243;29;20126;-79
2023/05/01 07:00:05;;;;;;;22.90;10.15;;;;;;;11.58;86.43;101282.81;4839945;29;20065;-79
2023/05/01 07:02:31;;;;;;;23.80;10.32;;;;;;;11.64;86.25;101285.06;4839279;29;20046;-79
2023/05/01 07:04:56;;;;;;;21.30;10.00;;;;;;;11.68;83.12;101285.69;4839769;29;20090;-79
2023/05/01 07:07:22;;;;;;;24.70;9.52;;;;;;;11.73;82.85;101294.31;4839869;29;20113;-80
2023/05/01 07:09:47;;;;;;;26.65;9.57;;;;;;;11.78;83.01;101292.13;4841135;29;20041;-80
2023/05/01 07:12:13;;;;;;;20.98;9.57;;;;;;;11.82;82.50;101287.41;4840949;29;20058;-79
2023/05/01 07:14:38;;;;;;;21.23;9.57;;;;;;;11.86;82.94;101279.00;4841173;29;20033;-80
2023/05/01 07:17:03;;;;;;;23.17;9.60;;;;;;;11.91;83.95;101280.50;4840584;29;20030;-80
2023/05/01 07:19:29;;;;;;;22.23;10.48;;;;;;;11.93;82.47;101281.22;4841163;29;20122;-80
2023/05/01 07:21:54;;;;;;;22.70;10.02;;;;;;;11.98;84.65;101281.81;4840957;29;20325;-80
2023/05/01 07:24:20;;;;;;;24.10;10.55;;;;;;;12.01;83.44;101278.88;4839471;29;20405;-80
2023/05/01 07:26:45;;;;;;;23.80;10.73;;;;;;;12.07;83.68;101286.53;4839368;29;20270;-80
2023/05/01 07:29:12;;;;;;;27.30;10.68;;;;;;;12.12;83.31;101278.94;4839292;29;20378;-80
2023/05/01 07:31:38;;;;;;;22.60;10.15;;;;;;;12.20;84.80;101286.50;4839112;29;20065;-80
2023/05/01 07:34:03;;;;;;;22.60;10.52;;;;;;;12.24;82.77;101286.16;4840711;29;20066;-80
2023/05/01 07:36:29;;;;;;;21.17;10.10;;;;;;;12.30;82.54;101292.03;4839392;29;20069;-79
2023/05/01 07:38:55;;;;;;;21.02;9.75;;;;;;;12.37;83.85;101288.81;4840791;29;20029;-80
2023/05/01 07:41:21;;;;;;;22.50;9.85;;;;;;;12.46;82.85;101287.25;4840459;29;20445;-79
2023/05/01 07:43:46;;;;;;;25.92;9.88;;;;;;;12.52;82.04;101294.03;4839285;29;20085;-80
2023/05/01 07:46:12;;;;;;;25.58;10.63;;;;;;;12.59;81.25;101293.47;4840481;29;20030;-81
2023/05/01 07:48:37;;;;;;;25.88;10.50;;;;;;;12.65;80.90;101288.56;4840406;29;20037;-79
2023/05/01 07:51:03;;;;;;;22.10;10.57;;;;;;;12.72;83.95;101297.91;4839042;29;20510;-80
2023/05/01 07:53:28;;;;;;;22.83;9.73;;;;;;;12.78;84.06;101294.75;4839154;29;20037;-80
2023/05/01 07:56:03;;;;;;;22.40;11.02;;;;;;;12.82;81.41;101293.56;4839119;29;20505;-80
2023/05/01 07:58:28;;;;;;;21.13;10.30;;;;;;;12.88;80.76;101293.06;4840408;29;20041;-80
2023/05/01 08:00:54;;;;;;;23.73;10.75;;;;;;;12.94;79.85;101292.63;4838770;29;20029;-80
2023/05/01 08:03:19;;;;;;;24.10;11.52;;;;;;;13.03;81.80;101280.28;4840208;29;20134;-80
2023/05/01 08:05:44;;;;;;;23.67;10.35;;;;;;;13.13;80.50;101279.56;4838785;29;20034;-80
2023/05/01 08:08:12;;;;;;;24.00;12.48;;;;;;;13.20;80.61;101278.94;4838581;29;20179;-80
2023/05/01 08:10:37;;;;;;;24.73;12.48;;;;;;;13.30;81.55;101281.81;4840207;29;20070;-79
2023/05/01 08:13:02;;;;;;;23.55;11.25;;;;;;;13.39;80.34;101283.81;4838826;29;20064;-79
2023/05/01 08:15:27;;;;;;;23.60;10.88;;;;;;;13.42;78.69;101280.00;4838855;29;20051;-80
2023/05/01 08:17:53;;;;;;;23.02;11.27;;;;;;;13.52;81.13;101281.00;4840072;29;20037;-80
2023/05/01 08:20:18;;;;;;;21.77;10.45;;;;;;;13.56;76.83;101278.94;4840121;29;20033;-79
2023/05/01 08:22:43;;;;;;;23.40;11.57;;;;;;;13.66;80.27;101279.06;4840223;29;20127;-79
2023/05/01 08:25:09;;;;;;;21.65;10.63;;;;;;;13.75;80.50;101271.09;4840189;29;20112;-79
2023/05/01 08:27:34;;;;;;;21.50;10.32;;;;;;;13.85;80.00;101275.75;4838725;29;20098;-80
2023/05/01 08:29:59;;;;;;;24.05;10.20;;;;;;;13.91;74.59;101276.13;4854169;29;20170;-80
2023/05/01 08:32:25;;;;;;;22.83;9.57;;;;;;;13.94;72.31;101285.81;4838459;29;20029;-80
2023/05/01 08:34:50;;;;;;;22.15;8.20;;;;;;;13.98;75.74;101277.34;4838854;29;20094;-81
2023/05/01 08:37:17;;;;;;;20.42;8.80;;;;;;;14.02;76.01;101287.91;4838736;29;20057;-79
2023/05/01 08:39:43;;;;;;;19.23;9.18;;;;;;;14.04;75.69;101281.41;4838796;29;20090;-79
2023/05/01 08:42:08;;;;;;;20.52;10.35;;;;;;;14.05;75.29;101276.84;4838638;29;20033;-80
2023/05/01 08:44:37;;;;;;;19.15;8.85;;;;;;;14.07;74.93;101282.97;4854036;29;20030;-80
2023/05/01 08:47:16;;;;;;;18.77;8.30;;;;;;;14.15;76.07;101277.81;4839946;29;20029;-80
2023/05/01 08:49:42;;;;;;;20.05;9.32;;;;;;;14.13;72.49;101283.34;4838515;29;20041;-80
2023/05/01 08:52:13;;;;;;;21.17;10.70;;;;;;;14.14;71.74;101281.47;4839844;29;20029;-80
2023/05/01 08:54:42;;;;;;;20.35;9.30;;;;;;;14.10;72.74;101280.00;4839934;29;20117;-80
2023/05/01 08:57:09;;;;;;;20.92;9.38;;;;;;;14.05;73.06;101284.94;4838499;29;20022;-80
2023/05/01 08:59:35;;;;;;;20.77;9.57;;;;;;;14.07;73.48;101280.25;4840002;29;20066;-80
2023/05/01 09:02:06;;;;;;;19.98;9.77;;;;;;;14.13;75.08;101285.19;4831442;29;20062;-80
2023/05/01 09:04:32;;;;;;;23.52;10.50;;;;;;;14.09;73.24;101284.56;4838618;29;20037;-80
2023/05/01 09:07:00;;;;;;;20.77;9.88;;;;;;;14.13;74.03;101291.44;4839840;29;20094;-80
2023/05/01 09:09:26;;;;;;;22.55;9.40;;;;;;;14.12;74.08;101288.88;4839711;29;20034;-80
2023/05/01 09:11:55;;;;;;;22.45;10.35;;;;;;;14.19;74.82;101289.22;4839874;29;20034;-80
2023/05/01 09:14:21;;;;;;;19.20;8.60;;;;;;;14.20;73.63;101286.38;4838585;29;20179;-81
2023/05/01 09:16:46;;;;;;;23.40;10.93;;;;;;;14.29;76.51;101292.88;4839670;29;20120;-80
2023/05/01 09:19:11;;;;;;;22.60;10.02;;;;;;;14.32;73.98;101290.81;4841054;29;20037;-81
2023/05/01 09:21:37;;;;;;;25.67;10.48;;;;;;;14.39;74.44;101285.72;4843024;29;20041;-80
2023/05/01 09:24:02;;;;;;;21.45;10.07;;;;;;;14.46;75.18;101284.22;4841549;29;20187;-80
2023/05/01 09:26:28;;;;;;;21.85;9.30;;;;;;;14.55;73.75;101282.63;4841342;29;20029;-81
2023/05/01 09:28:56;;;;;;;22.60;9.73;;;;;;;14.60;73.61;101285.81;4843008;29;20048;-80
2023/05/01 09:31:26;;;;;;;21.65;9.32;;;;;;;14.66;74.25;101285.31;4841142;29;20520;-80
2023/05/01 09:33:54;;;;;;;24.33;10.90;;;;;;;14.74;74.44;101290.06;4841660;29;20488;-80
2023/05/01 09:36:19;;;;;;;24.42;9.82;;;;;;;14.82;73.59;101290.31;4841479;29;20376;-80
2023/05/01 09:38:44;;;;;;;22.58;10.15;;;;;;;14.96;76.22;101288.28;4842644;29;20105;-80
2023/05/01 09:41:10;;;;;;;22.60;10.18;;;;;;;15.02;73.74;101283.22;4842786;29;20041;-80
2023/05/01 09:43:35;;;;;;;22.27;10.55;;;;;;;15.11;70.12;101286.97;4841217;29;20055;-81
2023/05/01 09:46:04;;;;;;;25.38;10.63;;;;;;;15.21;71.14;101284.31;4841535;29;20081;-81
2023/05/01 09:48:29;;;;;;;22.95;9.63;;;;;;;15.31;70.50;101276.25;4841029;29;20439;-81
2023/05/01 09:50:55;;;;;;;20.98;9.15;;;;;;;15.40;70.07;101285.44;4841206;29;20084;-81
2023/05/01 09:53:35;;;;;;;23.17;10.60;;;;;;;15.41;69.66;101287.16;4841017;29;20030;-81
2023/05/01 09:56:01;;;;;;;20.98;9.75;;;;;;;15.49;70.31;101287.34;4834421;29;20059;-81
2023/05/01 09:58:27;;;;;;;22.58;10.60;;;;;;;15.52;70.54;101289.78;4840928;29;20097;-80
2023/05/01 10:00:52;;;;;;;23.05;10.98;;;;;;;15.57;71.99;101290.25;4840850;29;20158;-80
2023/05/01 10:03:17;;;;;;;22.23;9.45;;;;;;;15.65;72.39;101292.28;4842138;29;20478;-80
2023/05/01 10:05:43;;;;;;;20.55;9.20;;;;;;;15.68;70.04;101289.28;4842198;29;20025;-80
2023/05/01 10:08:13;;;;;;;18.77;7.80;;;;;;;15.69;67.75;101283.72;4842091;29;20154;-81
2023/05/01 10:10:42;;;;;;;19.90;8.48;;;;;;;15.71;69.08;101281.78;4840803;29;20082;-81
2023/05/01 10:13:15;;;;;;;22.42;9.52;;;;;;;15.74;68.51;101294.19;4840592;29;20038;-81
2023/05/01 10:15:41;;;;;;;21.70;9.15;;;;;;;15.78;69.66;101297.47;4842058;29;20046;-81
2023/05/01 10:18:10;;;;;;;24.33;9.05;;;;;;;15.82;67.21;101299.81;4840408;29;20140;-80
2023/05/01 10:20:35;;;;;;;22.45;9.15;;;;;;;15.85;68.48;101295.97;4841980;29;20058;-78
2023/05/01 10:23:02;;;;;;;21.17;8.77;;;;;;;15.89;66.72;101300.97;4841782;29;20049;-78
2023/05/01 10:25:28;;;;;;;21.73;9.32;;;;;;;15.94;67.21;101295.16;4841903;29;20030;-78
2023/05/01 10:27:56;;;;;;;20.48;9.05;;;;;;;16.03;67.32;101302.47;4841729;29;20487;-79
2023/05/01 10:30:21;;;;;;;20.08;9.10;;;;;;;16.05;67.88;101297.75;4839522;29;20198;-79
2023/05/01 10:32:47;;;;;;;24.23;8.85;;;;;;;16.10;68.68;101296.50;4841532;29;20135;-78
2023/05/01 10:35:27;;;;;;;21.42;8.93;;;;;;;16.09;70.16;101298.34;4840239;29;20049;-79
2023/05/01 10:38:00;;;;;;;19.90;8.82;;;;;;;16.13;69.88;101302.50;4840580;29;20032;-78
2023/05/01 10:40:38;;;;;;;22.35;9.52;;;;;;;16.06;67.88;101302.19;4840185;29;20037;-79
2023/05/01 10:43:27;;;;;;;21.70;9.18;;;;;;;16.04;70.49;101306.88;4840090;29;20041;-79
2023/05/01 10:46:17;;;;;;;21.58;9.38;;;;;;;16.02;69.66;101311.59;4835399;29;20018;-79
2023/05/01 10:48:43;;;;;;;20.60;9.18;;;;;;;16.01;69.90;101309.03;4840070;29;20041;-78
2023/05/01 10:51:09;;;;;;;21.75;9.00;;;;;;;15.96;67.57;101312.16;4840002;29;20030;-79
2023/05/01 10:53:35;;;;;;;22.38;8.80;;;;;;;15.98;68.19;101317.44;4841400;29;20486;-79
2023/05/01 10:56:03;;;;;;;22.65;9.18;;;;;;;15.98;67.46;101312.00;4839987;29;20029;-78
2023/05/01 10:58:37;;;;;;;23.92;9.02;;;;;;;16.02;68.74;101317.03;4839890;29;20124;-79
2023/05/01 11:01:33;;;;;;;20.85;9.05;;;;;;;16.00;67.00;101316.31;4833795;29;20022;-78
2023/05/01 11:04:19;;;;;;;20.67;9.02;;;;;;;16.03;66.36;101312.44;4841206;29;20044;-79
2023/05/01 11:07:14;;;;;;;25.35;8.68;;;;;;;16.04;67.65;101312.31;4841164;29;20121;-78
2023/05/01 11:09:53;;;;;;;21.92;9.38;;;;;;;16.08;67.28;101307.47;4836749;29;20049;-78
2023/05/01 11:12:44;;;;;;;22.30;10.43;;;;;;;16.08;68.14;101311.03;4834758;29;20542;-79
2023/05/01 11:15:10;;;;;;;20.70;9.20;;;;;;;16.11;67.81;101311.78;4839680;29;20136;-78
2023/05/01 11:17:38;;;;;;;20.48;8.50;;;;;;;16.13;66.92;101307.06;4839574;29;20044;-78
2023/05/01 11:20:04;;;;;;;20.23;9.30;;;;;;;16.10;67.01;101310.91;4839683;29;20124;-78